sensor_id;sensor_type;location;lat;lon;timestamp;P1;durP1;ratioP1;P2;durP2;ratioP2
50483;SDS011;36409;52.168;20.878;2023-05-07T00:01:30;7.60;;;3.97;;
50483;SDS011;36409;52.168;20.878;2023-05-07T00:04:00;6.40;;;4.10;;
50483;SDS011;36409;52.168;20.878;2023-05-07T00:06:32;5.97;;;3.77;;
50483;SDS011;36409;52.168;20.878;2023-05-07T00:09:01;10.23;;;4.50;;
50483;SDS011;36409;52.168;20.878;2023-05-07T00:11:32;8.70;;;4.00;;
50483;SDS011;36409;52.168;20.878;2023-05-07T00:14:04;9.90;;;4.63;;
50483;SDS011;36409;52.168;20.878;2023-05-07T00:16:34;7.37;;;3.80;;
50483;SDS011;36409;52.168;20.878;2023-05-07T00:19:03;7.93;;;4.37;;
50483;SDS011;36409;52.168;20.878;2023-05-07T00:21:32;8.37;;;3.80;;
50483;SDS011;36409;52.168;20.878;2023-05-07T00:24:01;8.67;;;4.20;;
50483;SDS011;36409;52.168;20.878;2023-05-07T00:26:30;7.53;;;3.97;;
50483;SDS011;36409;52.168;20.878;2023-05-07T00:29:00;7.43;;;4.10;;
50483;SDS011;36409;52.168;20.878;2023-05-07T00:31:29;9.90;;;3.80;;
50483;SDS011;36409;52.168;20.878;2023-05-07T00:33:59;7.45;;;4.10;;
50483;SDS011;36409;52.168;20.878;2023-05-07T00:36:29;6.00;;;3.87;;
50483;SDS011;36409;52.168;20.878;2023-05-07T00:38:59;9.07;;;4.40;;
50483;SDS011;36409;52.168;20.878;2023-05-07T00:41:31;6.07;;;3.60;;
50483;SDS011;36409;52.168;20.878;2023-05-07T00:44:00;7.73;;;4.07;;
50483;SDS011;36409;52.168;20.878;2023-05-07T00:46:29;8.27;;;3.30;;
50483;SDS011;36409;52.168;20.878;2023-05-07T00:49:00;6.67;;;3.67;;
50483;SDS011;36409;52.168;20.878;2023-05-07T00:51:30;6.63;;;3.70;;
50483;SDS011;36409;52.168;20.878;2023-05-07T00:54:01;6.93;;;4.10;;
50483;SDS011;36409;52.168;20.878;2023-05-07T00:56:33;6.03;;;3.23;;
50483;SDS011;36409;52.168;20.878;2023-05-07T00:59:03;11.67;;;3.53;;
50483;SDS011;36409;52.168;20.878;2023-05-07T01:01:33;6.10;;;3.67;;
50483;SDS011;36409;52.168;20.878;2023-05-07T01:04:02;7.33;;;4.07;;
50483;SDS011;36409;52.168;20.878;2023-05-07T01:06:32;6.50;;;3.77;;
50483;SDS011;36409;52.168;20.878;2023-05-07T01:09:02;5.55;;;3.35;;
50483;SDS011;36409;52.168;20.878;2023-05-07T01:11:32;8.37;;;3.30;;
50483;SDS011;36409;52.168;20.878;2023-05-07T01:14:01;8.23;;;3.40;;
50483;SDS011;36409;52.168;20.878;2023-05-07T01:16:32;6.50;;;3.53;;
50483;SDS011;36409;52.168;20.878;2023-05-07T01:19:01;6.83;;;3.30;;
50483;SDS011;36409;52.168;20.878;2023-05-07T01:21:32;6.60;;;3.40;;
50483;SDS011;36409;52.168;20.878;2023-05-07T01:24:06;5.90;;;3.20;;
50483;SDS011;36409;52.168;20.878;2023-05-07T01:26:35;8.07;;;3.47;;
50483;SDS011;36409;52.168;20.878;2023-05-07T01:29:04;5.33;;;3.20;;
50483;SDS011;36409;52.168;20.878;2023-05-07T01:31:34;5.87;;;3.10;;
50483;SDS011;36409;52.168;20.878;2023-05-07T01:34:04;7.63;;;3.40;;
50483;SDS011;36409;52.168;20.878;2023-05-07T01:36:35;9.67;;;3.60;;
50483;SDS011;36409;52.168;20.878;2023-05-07T01:39:08;5.90;;;3.43;;
50483;SDS011;36409;52.168;20.878;2023-05-07T01:41:39;8.27;;;3.67;;
50483;SDS011;36409;52.168;20.878;2023-05-07T01:44:08;5.43;;;3.10;;
50483;SDS011;36409;52.168;20.878;2023-05-07T01:46:41;6.03;;;3.13;;
50483;SDS011;36409;52.168;20.878;2023-05-07T01:49:10;5.17;;;3.10;;
50483;SDS011;36409;52.168;20.878;2023-05-07T01:51:40;6.13;;;3.00;;
50483;SDS011;36409;52.168;20.878;2023-05-07T01:54:10;7.13;;;3.80;;
50483;SDS011;36409;52.168;20.878;2023-05-07T01:56:39;5.60;;;3.17;;
50483;SDS011;36409;52.168;20.878;2023-05-07T01:59:09;5.13;;;3.17;;
50483;SDS011;36409;52.168;20.878;2023-05-07T02:01:38;5.03;;;3.00;;
50483;SDS011;36409;52.168;20.878;2023-05-07T02:04:07;7.03;;;3.30;;
50483;SDS011;36409;52.168;20.878;2023-05-07T02:06:36;6.10;;;3.30;;
50483;SDS011;36409;52.168;20.878;2023-05-07T02:09:08;6.87;;;3.40;;
50483;SDS011;36409;52.168;20.878;2023-05-07T02:11:39;6.27;;;3.50;;
50483;SDS011;36409;52.168;20.878;2023-05-07T02:14:08;5.10;;;3.00;;
50483;SDS011;36409;52.168;20.878;2023-05-07T02:16:40;5.27;;;2.57;;
50483;SDS011;36409;52.168;20.878;2023-05-07T02:19:11;5.13;;;3.27;;
50483;SDS011;36409;52.168;20.878;2023-05-07T02:21:41;6.03;;;3.13;;
50483;SDS011;36409;52.168;20.878;2023-05-07T02:24:10;6.47;;;3.30;;
50483;SDS011;36409;52.168;20.878;2023-05-07T02:26:39;10.50;;;3.67;;
50483;SDS011;36409;52.168;20.878;2023-05-07T02:29:08;6.77;;;3.23;;
50483;SDS011;36409;52.168;20.878;2023-05-07T02:31:38;5.27;;;3.30;;
50483;SDS011;36409;52.168;20.878;2023-05-07T02:34:08;10.53;;;3.23;;
50483;SDS011;36409;52.168;20.878;2023-05-07T02:36:38;6.07;;;3.53;;
50483;SDS011;36409;52.168;20.878;2023-05-07T02:39:11;5.93;;;3.23;;
50483;SDS011;36409;52.168;20.878;2023-05-07T02:41:41;6.50;;;3.10;;
50483;SDS011;36409;52.168;20.878;2023-05-07T02:44:10;5.97;;;3.30;;
50483;SDS011;36409;52.168;20.878;2023-05-07T02:46:40;6.37;;;3.37;;
50483;SDS011;36409;52.168;20.878;2023-05-07T02:49:10;9.83;;;4.17;;
50483;SDS011;36409;52.168;20.878;2023-05-07T02:51:39;10.67;;;3.17;;
50483;SDS011;36409;52.168;20.878;2023-05-07T02:54:12;9.53;;;3.37;;
50483;SDS011;36409;52.168;20.878;2023-05-07T02:56:41;6.13;;;3.23;;
50483;SDS011;36409;52.168;20.878;2023-05-07T02:59:10;7.10;;;3.30;;
50483;SDS011;36409;52.168;20.878;2023-05-07T03:01:40;5.97;;;3.10;;
50483;SDS011;36409;52.168;20.878;2023-05-07T03:04:13;6.17;;;2.87;;
50483;SDS011;36409;52.168;20.878;2023-05-07T03:06:43;7.43;;;3.20;;
50483;SDS011;36409;52.168;20.878;2023-05-07T03:09:12;5.40;;;2.93;;
50483;SDS011;36409;52.168;20.878;2023-05-07T03:11:41;7.13;;;3.30;;
50483;SDS011;36409;52.168;20.878;2023-05-07T03:14:11;5.73;;;3.00;;
50483;SDS011;36409;52.168;20.878;2023-05-07T03:16:40;5.47;;;2.90;;
50483;SDS011;36409;52.168;20.878;2023-05-07T03:19:09;6.83;;;3.13;;
50483;SDS011;36409;52.168;20.878;2023-05-07T03:21:40;7.67;;;3.07;;
50483;SDS011;36409;52.168;20.878;2023-05-07T03:24:10;6.77;;;3.43;;
50483;SDS011;36409;52.168;20.878;2023-05-07T03:26:39;5.07;;;2.80;;
50483;SDS011;36409;52.168;20.878;2023-05-07T03:29:08;9.33;;;3.20;;
50483;SDS011;36409;52.168;20.878;2023-05-07T03:31:38;5.10;;;3.37;;
50483;SDS011;36409;52.168;20.878;2023-05-07T03:34:07;4.93;;;2.60;;
50483;SDS011;36409;52.168;20.878;2023-05-07T03:36:36;5.00;;;3.00;;
50483;SDS011;36409;52.168;20.878;2023-05-07T03:39:07;6.67;;;2.70;;
50483;SDS011;36409;52.168;20.878;2023-05-07T03:41:38;4.20;;;2.57;;
50483;SDS011;36409;52.168;20.878;2023-05-07T03:44:08;4.70;;;2.73;;
50483;SDS011;36409;52.168;20.878;2023-05-07T03:46:38;6.13;;;3.00;;
50483;SDS011;36409;52.168;20.878;2023-05-07T03:49:08;4.77;;;2.73;;
50483;SDS011;36409;52.168;20.878;2023-05-07T03:51:37;6.10;;;3.03;;
50483;SDS011;36409;52.168;20.878;2023-05-07T03:54:08;6.77;;;2.90;;
50483;SDS011;36409;52.168;20.878;2023-05-07T03:56:38;5.47;;;2.57;;
50483;SDS011;36409;52.168;20.878;2023-05-07T03:59:08;5.30;;;3.20;;
50483;SDS011;36409;52.168;20.878;2023-05-07T04:01:38;5.30;;;3.03;;
50483;SDS011;36409;52.168;20.878;2023-05-07T04:04:08;7.03;;;2.90;;
50483;SDS011;36409;52.168;20.878;2023-05-07T04:06:37;8.73;;;2.70;;
50483;SDS011;36409;52.168;20.878;2023-05-07T04:09:07;6.40;;;2.70;;
50483;SDS011;36409;52.168;20.878;2023-05-07T04:11:37;4.10;;;2.63;;
50483;SDS011;36409;52.168;20.878;2023-05-07T04:14:08;6.50;;;3.20;;
50483;SDS011;36409;52.168;20.878;2023-05-07T04:16:37;5.63;;;3.23;;
50483;SDS011;36409;52.168;20.878;2023-05-07T04:19:07;6.80;;;3.40;;
50483;SDS011;36409;52.168;20.878;2023-05-07T04:21:37;4.97;;;3.10;;
50483;SDS011;36409;52.168;20.878;2023-05-07T04:24:07;4.80;;;2.97;;
50483;SDS011;36409;52.168;20.878;2023-05-07T04:26:36;7.03;;;3.10;;
50483;SDS011;36409;52.168;20.878;2023-05-07T04:29:05;5.33;;;3.00;;
50483;SDS011;36409;52.168;20.878;2023-05-07T04:31:36;6.40;;;2.97;;
50483;SDS011;36409;52.168;20.878;2023-05-07T04:34:05;5.73;;;2.83;;
50483;SDS011;36409;52.168;20.878;2023-05-07T04:36:34;4.83;;;2.83;;
50483;SDS011;36409;52.168;20.878;2023-05-07T04:39:06;4.63;;;2.77;;
50483;SDS011;36409;52.168;20.878;2023-05-07T04:41:38;7.60;;;3.33;;
50483;SDS011;36409;52.168;20.878;2023-05-07T04:44:08;6.77;;;3.40;;
50483;SDS011;36409;52.168;20.878;2023-05-07T04:46:38;6.00;;;3.00;;
50483;SDS011;36409;52.168;20.878;2023-05-07T04:49:07;6.87;;;3.23;;
50483;SDS011;36409;52.168;20.878;2023-05-07T04:51:37;5.87;;;3.13;;
50483;SDS011;36409;52.168;20.878;2023-05-07T04:54:12;5.23;;;2.87;;
50483;SDS011;36409;52.168;20.878;2023-05-07T04:56:41;5.00;;;2.70;;
50483;SDS011;36409;52.168;20.878;2023-05-07T04:59:10;5.87;;;2.70;;
50483;SDS011;36409;52.168;20.878;2023-05-07T05:01:40;7.10;;;2.70;;
50483;SDS011;36409;52.168;20.878;2023-05-07T05:04:09;6.67;;;3.20;;
50483;SDS011;36409;52.168;20.878;2023-05-07T05:06:40;4.87;;;2.57;;
50483;SDS011;36409;52.168;20.878;2023-05-07T05:09:11;6.90;;;3.23;;
50483;SDS011;36409;52.168;20.878;2023-05-07T05:11:41;6.30;;;3.10;;
50483;SDS011;36409;52.168;20.878;2023-05-07T05:14:10;6.13;;;2.87;;
50483;SDS011;36409;52.168;20.878;2023-05-07T05:16:39;5.60;;;2.63;;
50483;SDS011;36409;52.168;20.878;2023-05-07T05:19:08;6.20;;;2.87;;
50483;SDS011;36409;52.168;20.878;2023-05-07T05:21:38;4.90;;;2.80;;
50483;SDS011;36409;52.168;20.878;2023-05-07T05:24:09;4.80;;;2.90;;
50483;SDS011;36409;52.168;20.878;2023-05-07T05:26:39;5.50;;;2.97;;
50483;SDS011;36409;52.168;20.878;2023-05-07T05:29:11;5.20;;;2.90;;
50483;SDS011;36409;52.168;20.878;2023-05-07T05:31:41;4.40;;;2.53;;
50483;SDS011;36409;52.168;20.878;2023-05-07T05:34:11;5.03;;;2.50;;
50483;SDS011;36409;52.168;20.878;2023-05-07T05:36:42;6.93;;;3.00;;
50483;SDS011;36409;52.168;20.878;2023-05-07T05:39:15;6.72;;;2.55;;
50483;SDS011;36409;52.168;20.878;2023-05-07T05:41:45;4.73;;;2.67;;
50483;SDS011;36409;52.168;20.878;2023-05-07T05:44:14;5.50;;;2.40;;
50483;SDS011;36409;52.168;20.878;2023-05-07T05:46:44;6.60;;;2.20;;
50483;SDS011;36409;52.168;20.878;2023-05-07T05:49:14;4.43;;;2.40;;
50483;SDS011;36409;52.168;20.878;2023-05-07T05:51:43;5.00;;;2.70;;
50483;SDS011;36409;52.168;20.878;2023-05-07T05:54:13;4.57;;;2.17;;
50483;SDS011;36409;52.168;20.878;2023-05-07T05:56:42;4.30;;;2.07;;
50483;SDS011;36409;52.168;20.878;2023-05-07T05:59:13;3.27;;;2.10;;
50483;SDS011;36409;52.168;20.878;2023-05-07T06:01:43;4.70;;;2.60;;
50483;SDS011;36409;52.168;20.878;2023-05-07T06:04:12;4.47;;;2.17;;
50483;SDS011;36409;52.168;20.878;2023-05-07T06:06:42;3.40;;;1.90;;
50483;SDS011;36409;52.168;20.878;2023-05-07T06:09:11;4.17;;;2.00;;
50483;SDS011;36409;52.168;20.878;2023-05-07T06:11:42;4.83;;;2.10;;
50483;SDS011;36409;52.168;20.878;2023-05-07T06:14:12;3.23;;;2.10;;
50483;SDS011;36409;52.168;20.878;2023-05-07T06:16:41;4.10;;;2.30;;
50483;SDS011;36409;52.168;20.878;2023-05-07T06:19:12;5.37;;;2.20;;
50483;SDS011;36409;52.168;20.878;2023-05-07T06:21:41;4.33;;;2.20;;
50483;SDS011;36409;52.168;20.878;2023-05-07T06:24:11;6.40;;;2.40;;
50483;SDS011;36409;52.168;20.878;2023-05-07T06:26:40;4.10;;;2.07;;
50483;SDS011;36409;52.168;20.878;2023-05-07T06:29:09;5.00;;;2.10;;
50483;SDS011;36409;52.168;20.878;2023-05-07T06:31:40;4.20;;;2.40;;
50483;SDS011;36409;52.168;20.878;2023-05-07T06:34:10;3.47;;;1.87;;
50483;SDS011;36409;52.168;20.878;2023-05-07T06:36:41;4.00;;;1.97;;
50483;SDS011;36409;52.168;20.878;2023-05-07T06:39:22;5.87;;;2.33;;
50483;SDS011;36409;52.168;20.878;2023-05-07T06:41:52;3.87;;;2.23;;
50483;SDS011;36409;52.168;20.878;2023-05-07T06:47:27;5.90;;;2.60;;
50483;SDS011;36409;52.168;20.878;2023-05-07T06:49:57;7.10;;;2.43;;
50483;SDS011;36409;52.168;20.878;2023-05-07T06:52:28;3.90;;;1.97;;
50483;SDS011;36409;52.168;20.878;2023-05-07T06:54:57;4.20;;;1.90;;
50483;SDS011;36409;52.168;20.878;2023-05-07T06:57:27;5.30;;;2.00;;
50483;SDS011;36409;52.168;20.878;2023-05-07T07:00:00;4.30;;;2.13;;
50483;SDS011;36409;52.168;20.878;2023-05-07T07:02:32;7.60;;;2.60;;
50483;SDS011;36409;52.168;20.878;2023-05-07T07:05:01;4.63;;;2.00;;
50483;SDS011;36409;52.168;20.878;2023-05-07T07:07:31;3.93;;;1.90;;
50483;SDS011;36409;52.168;20.878;2023-05-07T07:10:00;4.57;;;1.97;;
50483;SDS011;36409;52.168;20.878;2023-05-07T07:12:32;5.53;;;2.17;;
50483;SDS011;36409;52.168;20.878;2023-05-07T07:15:02;4.73;;;2.17;;
50483;SDS011;36409;52.168;20.878;2023-05-07T07:17:32;7.43;;;2.00;;
50483;SDS011;36409;52.168;20.878;2023-05-07T07:20:01;3.80;;;2.20;;
50483;SDS011;36409;52.168;20.878;2023-05-07T07:22:32;3.10;;;1.73;;
50483;SDS011;36409;52.168;20.878;2023-05-07T07:25:01;4.63;;;2.10;;
50483;SDS011;36409;52.168;20.878;2023-05-07T07:30:31;4.05;;;2.30;;
50483;SDS011;36409;52.168;20.878;2023-05-07T07:33:00;3.80;;;1.90;;
50483;SDS011;36409;52.168;20.878;2023-05-07T07:35:33;3.57;;;1.93;;
50483;SDS011;36409;52.168;20.878;2023-05-07T07:38:04;3.27;;;1.93;;
50483;SDS011;36409;52.168;20.878;2023-05-07T07:40:35;4.53;;;2.50;;
50483;SDS011;36409;52.168;20.878;2023-05-07T07:43:04;3.57;;;1.87;;
50483;SDS011;36409;52.168;20.878;2023-05-07T07:45:34;3.77;;;1.90;;
50483;SDS011;36409;52.168;20.878;2023-05-07T07:48:03;3.83;;;2.00;;
50483;SDS011;36409;52.168;20.878;2023-05-07T07:50:34;4.07;;;2.07;;
50483;SDS011;36409;52.168;20.878;2023-05-07T07:53:15;3.30;;;1.63;;
50483;SDS011;36409;52.168;20.878;2023-05-07T07:55:46;3.30;;;1.90;;
50483;SDS011;36409;52.168;20.878;2023-05-07T07:58:17;4.53;;;1.93;;
50483;SDS011;36409;52.168;20.878;2023-05-07T08:00:47;3.30;;;1.57;;
50483;SDS011;36409;52.168;20.878;2023-05-07T08:03:19;3.57;;;2.00;;
50483;SDS011;36409;52.168;20.878;2023-05-07T08:05:51;3.27;;;1.90;;
50483;SDS011;36409;52.168;20.878;2023-05-07T08:08:21;3.60;;;2.00;;
50483;SDS011;36409;52.168;20.878;2023-05-07T08:10:52;2.87;;;1.70;;
50483;SDS011;36409;52.168;20.878;2023-05-07T08:13:27;2.73;;;1.53;;
50483;SDS011;36409;52.168;20.878;2023-05-07T08:15:56;9.57;;;3.10;;
50483;SDS011;36409;52.168;20.878;2023-05-07T08:18:25;8.10;;;2.40;;
50483;SDS011;36409;52.168;20.878;2023-05-07T08:20:58;4.50;;;2.73;;
50483;SDS011;36409;52.168;20.878;2023-05-07T08:23:31;4.63;;;2.53;;
50483;SDS011;36409;52.168;20.878;2023-05-07T08:26:02;5.40;;;2.60;;
50483;SDS011;36409;52.168;20.878;2023-05-07T08:28:32;4.67;;;2.73;;
50483;SDS011;36409;52.168;20.878;2023-05-07T08:31:01;5.67;;;2.20;;
50483;SDS011;36409;52.168;20.878;2023-05-07T08:33:35;3.90;;;2.10;;
50483;SDS011;36409;52.168;20.878;2023-05-07T08:36:05;7.40;;;2.13;;
50483;SDS011;36409;52.168;20.878;2023-05-07T08:38:35;3.63;;;1.80;;
50483;SDS011;36409;52.168;20.878;2023-05-07T08:41:04;8.57;;;4.93;;
50483;SDS011;36409;52.168;20.878;2023-05-07T08:43:37;6.10;;;3.27;;
50483;SDS011;36409;52.168;20.878;2023-05-07T08:46:09;6.20;;;3.00;;
50483;SDS011;36409;52.168;20.878;2023-05-07T08:48:42;4.80;;;2.37;;
50483;SDS011;36409;52.168;20.878;2023-05-07T08:51:15;3.60;;;1.70;;
50483;SDS011;36409;52.168;20.878;2023-05-07T08:53:50;3.10;;;1.93;;
50483;SDS011;36409;52.168;20.878;2023-05-07T08:56:28;3.87;;;2.00;;
50483;SDS011;36409;52.168;20.878;2023-05-07T08:58:59;6.30;;;2.13;;
50483;SDS011;36409;52.168;20.878;2023-05-07T09:01:29;8.23;;;2.00;;
50483;SDS011;36409;52.168;20.878;2023-05-07T09:04:03;4.30;;;1.90;;
50483;SDS011;36409;52.168;20.878;2023-05-07T09:06:34;3.67;;;1.90;;
50483;SDS011;36409;52.168;20.878;2023-05-07T09:09:05;5.03;;;1.93;;
50483;SDS011;36409;52.168;20.878;2023-05-07T09:11:34;4.57;;;2.13;;
50483;SDS011;36409;52.168;20.878;2023-05-07T09:14:03;6.03;;;3.27;;
50483;SDS011;36409;52.168;20.878;2023-05-07T09:16:37;4.30;;;2.40;;
50483;SDS011;36409;52.168;20.878;2023-05-07T09:19:07;4.80;;;1.95;;
50483;SDS011;36409;52.168;20.878;2023-05-07T09:21:37;5.03;;;2.10;;
50483;SDS011;36409;52.168;20.878;2023-05-07T09:24:07;4.43;;;2.40;;
50483;SDS011;36409;52.168;20.878;2023-05-07T09:26:39;7.67;;;2.40;;
50483;SDS011;36409;52.168;20.878;2023-05-07T09:29:17;4.15;;;2.20;;
50483;SDS011;36409;52.168;20.878;2023-05-07T09:31:52;6.13;;;2.00;;
50483;SDS011;36409;52.168;20.878;2023-05-07T09:34:22;3.93;;;1.70;;
50483;SDS011;36409;52.168;20.878;2023-05-07T09:36:52;7.70;;;1.93;;
50483;SDS011;36409;52.168;20.878;2023-05-07T09:39:22;5.03;;;2.10;;
50483;SDS011;36409;52.168;20.878;2023-05-07T09:41:52;6.90;;;3.50;;
50483;SDS011;36409;52.168;20.878;2023-05-07T09:44:29;4.73;;;2.17;;
50483;SDS011;36409;52.168;20.878;2023-05-07T09:46:59;3.87;;;1.90;;
50483;SDS011;36409;52.168;20.878;2023-05-07T09:49:37;8.30;;;2.50;;
50483;SDS011;36409;52.168;20.878;2023-05-07T09:52:10;3.27;;;1.80;;
50483;SDS011;36409;52.168;20.878;2023-05-07T09:54:45;6.70;;;2.33;;
50483;SDS011;36409;52.168;20.878;2023-05-07T09:57:19;3.83;;;2.12;;
50483;SDS011;36409;52.168;20.878;2023-05-07T09:59:54;3.80;;;1.83;;
50483;SDS011;36409;52.168;20.878;2023-05-07T10:05:01;6.13;;;2.60;;
50483;SDS011;36409;52.168;20.878;2023-05-07T10:07:32;8.03;;;2.97;;
50483;SDS011;36409;52.168;20.878;2023-05-07T10:10:10;5.83;;;2.30;;
50483;SDS011;36409;52.168;20.878;2023-05-07T10:12:42;5.07;;;1.90;;
50483;SDS011;36409;52.168;20.878;2023-05-07T10:15:17;3.83;;;1.83;;
50483;SDS011;36409;52.168;20.878;2023-05-07T10:17:49;3.57;;;1.83;;
50483;SDS011;36409;52.168;20.878;2023-05-07T10:20:22;4.30;;;2.13;;
50483;SDS011;36409;52.168;20.878;2023-05-07T10:22:51;6.60;;;3.03;;
50483;SDS011;36409;52.168;20.878;2023-05-07T10:25:28;5.75;;;2.70;;
50483;SDS011;36409;52.168;20.878;2023-05-07T10:28:07;4.73;;;2.00;;
50483;SDS011;36409;52.168;20.878;2023-05-07T10:30:44;7.37;;;2.45;;
50483;SDS011;36409;52.168;20.878;2023-05-07T10:33:26;10.27;;;2.43;;
50483;SDS011;36409;52.168;20.878;2023-05-07T10:35:59;4.50;;;2.00;;
50483;SDS011;36409;52.168;20.878;2023-05-07T10:41:01;5.53;;;1.90;;
50483;SDS011;36409;52.168;20.878;2023-05-07T10:43:40;4.70;;;1.90;;
50483;SDS011;36409;52.168;20.878;2023-05-07T10:46:10;3.00;;;1.53;;
50483;SDS011;36409;52.168;20.878;2023-05-07T10:52:15;4.83;;;2.23;;
50483;SDS011;36409;52.168;20.878;2023-05-07T10:55:18;5.60;;;2.23;;
50483;SDS011;36409;52.168;20.878;2023-05-07T11:01:04;11.17;;;6.17;;
50483;SDS011;36409;52.168;20.878;2023-05-07T11:04:12;15.93;;;6.77;;
50483;SDS011;36409;52.168;20.878;2023-05-07T11:07:30;10.30;;;4.13;;
50483;SDS011;36409;52.168;20.878;2023-05-07T11:10:14;8.77;;;4.80;;
50483;SDS011;36409;52.168;20.878;2023-05-07T11:12:58;12.47;;;6.70;;
50483;SDS011;36409;52.168;20.878;2023-05-07T11:15:43;7.90;;;4.00;;
50483;SDS011;36409;52.168;20.878;2023-05-07T11:18:48;4.57;;;2.63;;
50483;SDS011;36409;52.168;20.878;2023-05-07T11:21:34;7.25;;;2.08;;
50483;SDS011;36409;52.168;20.878;2023-05-07T11:24:23;5.23;;;1.80;;
50483;SDS011;36409;52.168;20.878;2023-05-07T11:26:58;4.40;;;1.83;;
50483;SDS011;36409;52.168;20.878;2023-05-07T11:29:28;4.27;;;1.53;;
50483;SDS011;36409;52.168;20.878;2023-05-07T11:32:04;4.30;;;1.67;;
50483;SDS011;36409;52.168;20.878;2023-05-07T11:34:40;2.80;;;1.73;;
50483;SDS011;36409;52.168;20.878;2023-05-07T11:37:10;6.60;;;2.20;;
50483;SDS011;36409;52.168;20.878;2023-05-07T11:40:07;5.50;;;2.23;;
50483;SDS011;36409;52.168;20.878;2023-05-07T11:42:38;3.63;;;1.87;;
50483;SDS011;36409;52.168;20.878;2023-05-07T11:45:10;5.50;;;2.00;;
50483;SDS011;36409;52.168;20.878;2023-05-07T11:47:41;5.93;;;1.83;;
50483;SDS011;36409;52.168;20.878;2023-05-07T11:50:11;4.10;;;1.80;;
50483;SDS011;36409;52.168;20.878;2023-05-07T11:52:40;4.95;;;2.00;;
50483;SDS011;36409;52.168;20.878;2023-05-07T11:55:19;8.27;;;2.87;;
50483;SDS011;36409;52.168;20.878;2023-05-07T11:57:50;5.17;;;2.43;;
50483;SDS011;36409;52.168;20.878;2023-05-07T12:00:19;5.60;;;2.43;;
50483;SDS011;36409;52.168;20.878;2023-05-07T12:02:48;3.50;;;1.90;;
50483;SDS011;36409;52.168;20.878;2023-05-07T12:05:18;8.80;;;4.30;;
50483;SDS011;36409;52.168;20.878;2023-05-07T12:07:47;7.87;;;4.23;;
50483;SDS011;36409;52.168;20.878;2023-05-07T12:10:23;4.50;;;2.47;;
50483;SDS011;36409;52.168;20.878;2023-05-07T12:12:52;5.20;;;2.00;;
50483;SDS011;36409;52.168;20.878;2023-05-07T12:15:22;6.13;;;3.07;;
50483;SDS011;36409;52.168;20.878;2023-05-07T12:17:52;7.30;;;2.77;;
50483;SDS011;36409;52.168;20.878;2023-05-07T12:20:22;6.93;;;3.17;;
50483;SDS011;36409;52.168;20.878;2023-05-07T12:22:51;4.60;;;2.00;;
50483;SDS011;36409;52.168;20.878;2023-05-07T12:25:21;5.03;;;2.00;;
50483;SDS011;36409;52.168;20.878;2023-05-07T12:27:52;5.60;;;2.10;;
50483;SDS011;36409;52.168;20.878;2023-05-07T12:30:21;4.70;;;1.70;;
50483;SDS011;36409;52.168;20.878;2023-05-07T12:32:53;4.00;;;1.90;;
50483;SDS011;36409;52.168;20.878;2023-05-07T12:35:28;6.50;;;1.60;;
50483;SDS011;36409;52.168;20.878;2023-05-07T12:37:59;4.37;;;2.00;;
50483;SDS011;36409;52.168;20.878;2023-05-07T12:40:35;3.67;;;1.67;;
50483;SDS011;36409;52.168;20.878;2023-05-07T12:43:07;2.87;;;1.50;;
50483;SDS011;36409;52.168;20.878;2023-05-07T12:45:43;3.57;;;1.70;;
50483;SDS011;36409;52.168;20.878;2023-05-07T12:48:13;4.97;;;1.87;;
50483;SDS011;36409;52.168;20.878;2023-05-07T12:50:42;6.30;;;2.17;;
50483;SDS011;36409;52.168;20.878;2023-05-07T12:53:12;27.30;;;2.50;;
50483;SDS011;36409;52.168;20.878;2023-05-07T12:55:43;3.37;;;1.73;;
50483;SDS011;36409;52.168;20.878;2023-05-07T12:58:17;3.43;;;1.70;;
50483;SDS011;36409;52.168;20.878;2023-05-07T13:00:48;3.43;;;1.90;;
50483;SDS011;36409;52.168;20.878;2023-05-07T13:03:22;4.57;;;1.60;;
50483;SDS011;36409;52.168;20.878;2023-05-07T13:05:53;4.33;;;1.60;;
50483;SDS011;36409;52.168;20.878;2023-05-07T13:08:27;5.43;;;1.53;;
50483;SDS011;36409;52.168;20.878;2023-05-07T13:11:00;3.47;;;1.77;;
50483;SDS011;36409;52.168;20.878;2023-05-07T13:13:33;2.40;;;1.37;;
50483;SDS011;36409;52.168;20.878;2023-05-07T13:16:04;5.03;;;1.60;;
50483;SDS011;36409;52.168;20.878;2023-05-07T13:18:35;3.00;;;1.70;;
50483;SDS011;36409;52.168;20.878;2023-05-07T13:21:06;5.13;;;1.67;;
50483;SDS011;36409;52.168;20.878;2023-05-07T13:23:35;4.83;;;1.70;;
50483;SDS011;36409;52.168;20.878;2023-05-07T13:26:05;3.63;;;1.93;;
50483;SDS011;36409;52.168;20.878;2023-05-07T13:28:53;6.13;;;1.70;;
50483;SDS011;36409;52.168;20.878;2023-05-07T13:31:23;4.83;;;1.53;;
50483;SDS011;36409;52.168;20.878;2023-05-07T13:33:54;4.87;;;1.60;;
50483;SDS011;36409;52.168;20.878;2023-05-07T13:36:24;5.13;;;1.60;;
50483;SDS011;36409;52.168;20.878;2023-05-07T13:38:54;3.87;;;1.77;;
50483;SDS011;36409;52.168;20.878;2023-05-07T13:41:24;4.27;;;1.87;;
50483;SDS011;36409;52.168;20.878;2023-05-07T13:43:55;2.50;;;1.10;;
50483;SDS011;36409;52.168;20.878;2023-05-07T13:46:25;3.37;;;1.50;;
50483;SDS011;36409;52.168;20.878;2023-05-07T13:48:54;4.23;;;1.87;;
50483;SDS011;36409;52.168;20.878;2023-05-07T13:51:24;2.70;;;1.33;;
50483;SDS011;36409;52.168;20.878;2023-05-07T13:53:53;2.63;;;1.47;;
50483;SDS011;36409;52.168;20.878;2023-05-07T13:56:23;4.00;;;1.77;;
50483;SDS011;36409;52.168;20.878;2023-05-07T13:58:53;6.73;;;2.03;;
50483;SDS011;36409;52.168;20.878;2023-05-07T14:01:27;3.53;;;1.43;;
50483;SDS011;36409;52.168;20.878;2023-05-07T14:04:01;3.58;;;1.90;;
50483;SDS011;36409;52.168;20.878;2023-05-07T14:06:30;2.70;;;1.30;;
50483;SDS011;36409;52.168;20.878;2023-05-07T14:08:59;3.03;;;1.30;;
50483;SDS011;36409;52.168;20.878;2023-05-07T14:11:28;4.40;;;1.30;;
50483;SDS011;36409;52.168;20.878;2023-05-07T14:14:02;2.13;;;1.20;;
50483;SDS011;36409;52.168;20.878;2023-05-07T14:16:34;5.03;;;1.47;;
50483;SDS011;36409;52.168;20.878;2023-05-07T14:19:04;7.30;;;1.20;;
50483;SDS011;36409;52.168;20.878;2023-05-07T14:21:33;2.30;;;1.40;;
50483;SDS011;36409;52.168;20.878;2023-05-07T14:24:03;4.70;;;1.50;;
50483;SDS011;36409;52.168;20.878;2023-05-07T14:26:34;2.40;;;1.40;;
50483;SDS011;36409;52.168;20.878;2023-05-07T14:29:03;5.27;;;1.50;;
50483;SDS011;36409;52.168;20.878;2023-05-07T14:31:34;3.07;;;1.53;;
50483;SDS011;36409;52.168;20.878;2023-05-07T14:34:03;5.87;;;1.77;;
50483;SDS011;36409;52.168;20.878;2023-05-07T14:36:32;2.50;;;1.30;;
50483;SDS011;36409;52.168;20.878;2023-05-07T14:39:01;3.93;;;1.70;;
50483;SDS011;36409;52.168;20.878;2023-05-07T14:41:32;3.53;;;1.30;;
50483;SDS011;36409;52.168;20.878;2023-05-07T14:44:02;5.80;;;1.60;;
50483;SDS011;36409;52.168;20.878;2023-05-07T14:46:38;2.93;;;1.30;;
50483;SDS011;36409;52.168;20.878;2023-05-07T14:49:07;2.57;;;1.33;;
50483;SDS011;36409;52.168;20.878;2023-05-07T14:51:44;3.13;;;1.60;;
50483;SDS011;36409;52.168;20.878;2023-05-07T14:54:14;6.45;;;1.55;;
50483;SDS011;36409;52.168;20.878;2023-05-07T14:56:43;3.37;;;1.50;;
50483;SDS011;36409;52.168;20.878;2023-05-07T14:59:12;4.50;;;1.60;;
50483;SDS011;36409;52.168;20.878;2023-05-07T15:01:43;3.47;;;1.67;;
50483;SDS011;36409;52.168;20.878;2023-05-07T15:04:12;3.33;;;1.50;;
50483;SDS011;36409;52.168;20.878;2023-05-07T15:06:43;3.80;;;1.63;;
50483;SDS011;36409;52.168;20.878;2023-05-07T15:09:12;3.20;;;1.63;;
50483;SDS011;36409;52.168;20.878;2023-05-07T15:11:41;5.77;;;1.80;;
50483;SDS011;36409;52.168;20.878;2023-05-07T15:14:11;2.90;;;1.47;;
50483;SDS011;36409;52.168;20.878;2023-05-07T15:16:40;5.25;;;1.75;;